Terminal Aerodrome Forecast
Issued by NWS Portland, ME

Home | Current Version | Previous Version | Text Only | Print | Product List | Glossary On
Versions: 1 2 3 4 5 6 7 8 9 10 11 12 13 14 15 16 17 18 19 20 21 22 23 24 25 26 27 28 29 30
661
FTUS41 KGYX 232332
TAFPWM
TAF
KPWM 232332Z 2400/2424 05013G23KT P6SM OVC025
     FM240300 05014KT 2SM -SHSN OVC015 WS020/09030KT
     FM240500 05014KT 1SM -SN BR OVC007
     FM240900 05018G26KT 2SM -SNPL OVC015 WS015/07045KT PROB30
      2414/2415 1SM -FZRA OVC003
     FM241700 04015G23KT 3SM RA OVC007=

USA.gov is the U.S. government's official web portal to all federal, state and local government web resources and services.